sensor_id;sensor_type;location;lat;lon;timestamp;P1;durP1;ratioP1;P2;durP2;ratioP2
25497;SDS011;13406;53.380;7.226;2023-07-30T00:01:36;5.50;;;3.00;;
25497;SDS011;13406;53.380;7.226;2023-07-30T00:04:02;5.80;;;2.80;;
25497;SDS011;13406;53.380;7.226;2023-07-30T00:06:27;9.27;;;2.90;;
25497;SDS011;13406;53.380;7.226;2023-07-30T00:08:53;6.00;;;3.00;;
25497;SDS011;13406;53.380;7.226;2023-07-30T00:11:18;7.60;;;2.50;;
25497;SDS011;13406;53.380;7.226;2023-07-30T00:13:44;11.20;;;3.63;;
25497;SDS011;13406;53.380;7.226;2023-07-30T00:16:09;6.30;;;2.80;;
25497;SDS011;13406;53.380;7.226;2023-07-30T00:18:35;6.20;;;2.73;;
25497;SDS011;13406;53.380;7.226;2023-07-30T00:21:00;8.00;;;2.90;;
25497;SDS011;13406;53.380;7.226;2023-07-30T00:23:25;14.23;;;3.43;;
25497;SDS011;13406;53.380;7.226;2023-07-30T00:25:51;10.53;;;3.23;;
25497;SDS011;13406;53.380;7.226;2023-07-30T00:28:16;8.00;;;3.43;;
25497;SDS011;13406;53.380;7.226;2023-07-30T00:30:42;10.67;;;3.93;;
25497;SDS011;13406;53.380;7.226;2023-07-30T00:33:07;8.43;;;3.60;;
25497;SDS011;13406;53.380;7.226;2023-07-30T00:35:33;8.70;;;3.67;;
25497;SDS011;13406;53.380;7.226;2023-07-30T00:37:58;7.00;;;3.23;;
25497;SDS011;13406;53.380;7.226;2023-07-30T00:40:23;11.83;;;4.57;;
25497;SDS011;13406;53.380;7.226;2023-07-30T00:42:49;9.03;;;3.80;;
25497;SDS011;13406;53.380;7.226;2023-07-30T00:45:14;7.23;;;3.30;;
25497;SDS011;13406;53.380;7.226;2023-07-30T00:47:40;12.00;;;4.47;;
25497;SDS011;13406;53.380;7.226;2023-07-30T00:50:06;10.43;;;4.20;;
25497;SDS011;13406;53.380;7.226;2023-07-30T00:52:32;8.37;;;4.20;;
25497;SDS011;13406;53.380;7.226;2023-07-30T00:54:59;9.47;;;4.43;;
25497;SDS011;13406;53.380;7.226;2023-07-30T00:57:27;12.97;;;4.50;;
25497;SDS011;13406;53.380;7.226;2023-07-30T00:59:53;8.53;;;4.80;;
25497;SDS011;13406;53.380;7.226;2023-07-30T01:02:20;10.67;;;4.30;;
25497;SDS011;13406;53.380;7.226;2023-07-30T01:04:46;8.20;;;4.27;;
25497;SDS011;13406;53.380;7.226;2023-07-30T01:07:12;13.00;;;5.03;;
25497;SDS011;13406;53.380;7.226;2023-07-30T01:09:37;11.63;;;4.17;;
25497;SDS011;13406;53.380;7.226;2023-07-30T01:12:03;11.63;;;4.47;;
25497;SDS011;13406;53.380;7.226;2023-07-30T01:14:30;9.43;;;4.30;;
25497;SDS011;13406;53.380;7.226;2023-07-30T01:16:57;7.17;;;3.70;;
25497;SDS011;13406;53.380;7.226;2023-07-30T01:19:23;7.07;;;4.10;;
25497;SDS011;13406;53.380;7.226;2023-07-30T01:21:48;6.80;;;3.77;;
25497;SDS011;13406;53.380;7.226;2023-07-30T01:24:14;7.53;;;3.53;;
25497;SDS011;13406;53.380;7.226;2023-07-30T01:29:11;5.87;;;3.50;;
25497;SDS011;13406;53.380;7.226;2023-07-30T01:31:41;13.17;;;4.57;;
25497;SDS011;13406;53.380;7.226;2023-07-30T01:34:10;13.30;;;4.27;;
25497;SDS011;13406;53.380;7.226;2023-07-30T01:36:37;11.87;;;4.13;;
25497;SDS011;13406;53.380;7.226;2023-07-30T01:39:04;11.63;;;4.07;;
25497;SDS011;13406;53.380;7.226;2023-07-30T01:41:30;10.20;;;3.60;;
25497;SDS011;13406;53.380;7.226;2023-07-30T01:43:56;8.47;;;3.80;;
25497;SDS011;13406;53.380;7.226;2023-07-30T01:46:22;8.47;;;3.87;;
25497;SDS011;13406;53.380;7.226;2023-07-30T01:48:47;10.30;;;4.70;;
25497;SDS011;13406;53.380;7.226;2023-07-30T01:51:13;9.60;;;4.20;;
25497;SDS011;13406;53.380;7.226;2023-07-30T01:53:38;10.17;;;4.30;;
25497;SDS011;13406;53.380;7.226;2023-07-30T01:56:03;14.03;;;4.17;;
25497;SDS011;13406;53.380;7.226;2023-07-30T01:58:29;13.03;;;4.63;;
25497;SDS011;13406;53.380;7.226;2023-07-30T02:00:54;8.67;;;3.97;;
25497;SDS011;13406;53.380;7.226;2023-07-30T02:03:20;10.67;;;4.50;;
25497;SDS011;13406;53.380;7.226;2023-07-30T02:05:45;10.40;;;4.17;;
25497;SDS011;13406;53.380;7.226;2023-07-30T02:08:11;8.80;;;3.70;;
25497;SDS011;13406;53.380;7.226;2023-07-30T02:10:40;12.30;;;4.27;;
25497;SDS011;13406;53.380;7.226;2023-07-30T02:13:06;15.10;;;4.20;;
25497;SDS011;13406;53.380;7.226;2023-07-30T02:15:32;9.10;;;3.93;;
25497;SDS011;13406;53.380;7.226;2023-07-30T02:17:57;11.77;;;4.07;;
25497;SDS011;13406;53.380;7.226;2023-07-30T02:20:22;13.83;;;4.60;;
25497;SDS011;13406;53.380;7.226;2023-07-30T02:22:48;11.90;;;4.10;;
25497;SDS011;13406;53.380;7.226;2023-07-30T02:25:13;9.07;;;4.10;;
25497;SDS011;13406;53.380;7.226;2023-07-30T02:27:39;21.17;;;4.30;;
25497;SDS011;13406;53.380;7.226;2023-07-30T02:30:04;9.10;;;3.80;;
25497;SDS011;13406;53.380;7.226;2023-07-30T02:32:30;10.87;;;4.50;;
25497;SDS011;13406;53.380;7.226;2023-07-30T02:34:56;10.33;;;3.93;;
25497;SDS011;13406;53.380;7.226;2023-07-30T02:37:21;11.63;;;4.17;;
25497;SDS011;13406;53.380;7.226;2023-07-30T02:39:46;12.03;;;4.33;;
25497;SDS011;13406;53.380;7.226;2023-07-30T02:42:12;10.60;;;4.73;;
25497;SDS011;13406;53.380;7.226;2023-07-30T02:44:37;11.90;;;3.77;;
25497;SDS011;13406;53.380;7.226;2023-07-30T02:47:03;13.50;;;5.00;;
25497;SDS011;13406;53.380;7.226;2023-07-30T02:49:28;14.67;;;4.73;;
25497;SDS011;13406;53.380;7.226;2023-07-30T02:51:54;11.53;;;4.17;;
25497;SDS011;13406;53.380;7.226;2023-07-30T02:54:19;11.53;;;4.47;;
25497;SDS011;13406;53.380;7.226;2023-07-30T02:56:47;11.40;;;4.47;;
25497;SDS011;13406;53.380;7.226;2023-07-30T02:59:13;10.70;;;4.07;;
25497;SDS011;13406;53.380;7.226;2023-07-30T03:01:38;13.03;;;4.00;;
25497;SDS011;13406;53.380;7.226;2023-07-30T03:04:04;9.07;;;4.40;;
25497;SDS011;13406;53.380;7.226;2023-07-30T03:06:29;11.93;;;4.97;;
25497;SDS011;13406;53.380;7.226;2023-07-30T03:08:55;12.47;;;4.50;;
25497;SDS011;13406;53.380;7.226;2023-07-30T03:11:21;22.00;;;6.50;;
25497;SDS011;13406;53.380;7.226;2023-07-30T03:13:47;14.57;;;6.13;;
25497;SDS011;13406;53.380;7.226;2023-07-30T03:16:12;14.27;;;5.43;;
25497;SDS011;13406;53.380;7.226;2023-07-30T03:18:38;12.77;;;5.30;;
25497;SDS011;13406;53.380;7.226;2023-07-30T03:21:03;11.77;;;4.80;;
25497;SDS011;13406;53.380;7.226;2023-07-30T03:23:29;15.70;;;5.40;;
25497;SDS011;13406;53.380;7.226;2023-07-30T03:25:54;15.90;;;5.37;;
25497;SDS011;13406;53.380;7.226;2023-07-30T03:28:20;19.60;;;5.23;;
25497;SDS011;13406;53.380;7.226;2023-07-30T03:30:45;13.10;;;5.27;;
25497;SDS011;13406;53.380;7.226;2023-07-30T03:33:10;15.13;;;4.87;;
25497;SDS011;13406;53.380;7.226;2023-07-30T03:35:36;13.40;;;5.33;;
25497;SDS011;13406;53.380;7.226;2023-07-30T03:38:01;13.07;;;4.60;;
25497;SDS011;13406;53.380;7.226;2023-07-30T03:40:27;16.43;;;5.10;;
25497;SDS011;13406;53.380;7.226;2023-07-30T03:42:53;14.63;;;5.03;;
25497;SDS011;13406;53.380;7.226;2023-07-30T03:45:19;16.40;;;5.63;;
25497;SDS011;13406;53.380;7.226;2023-07-30T03:47:44;12.33;;;4.30;;
25497;SDS011;13406;53.380;7.226;2023-07-30T03:50:10;12.40;;;4.83;;
25497;SDS011;13406;53.380;7.226;2023-07-30T03:52:35;20.33;;;4.53;;
25497;SDS011;13406;53.380;7.226;2023-07-30T03:55:01;10.50;;;3.80;;
25497;SDS011;13406;53.380;7.226;2023-07-30T03:57:26;9.43;;;3.97;;
25497;SDS011;13406;53.380;7.226;2023-07-30T03:59:51;11.70;;;4.13;;
25497;SDS011;13406;53.380;7.226;2023-07-30T04:02:17;11.00;;;3.90;;
25497;SDS011;13406;53.380;7.226;2023-07-30T04:04:42;13.53;;;4.27;;
25497;SDS011;13406;53.380;7.226;2023-07-30T04:07:13;13.50;;;4.63;;
25497;SDS011;13406;53.380;7.226;2023-07-30T04:09:38;15.87;;;4.20;;
25497;SDS011;13406;53.380;7.226;2023-07-30T04:12:04;12.07;;;4.53;;
25497;SDS011;13406;53.380;7.226;2023-07-30T04:14:30;14.43;;;4.03;;
25497;SDS011;13406;53.380;7.226;2023-07-30T04:16:55;13.20;;;4.73;;
25497;SDS011;13406;53.380;7.226;2023-07-30T04:19:20;15.67;;;4.80;;
25497;SDS011;13406;53.380;7.226;2023-07-30T04:21:46;8.57;;;4.10;;
25497;SDS011;13406;53.380;7.226;2023-07-30T04:24:11;15.20;;;5.00;;
25497;SDS011;13406;53.380;7.226;2023-07-30T04:26:37;12.53;;;4.43;;
25497;SDS011;13406;53.380;7.226;2023-07-30T04:29:02;18.93;;;6.20;;
25497;SDS011;13406;53.380;7.226;2023-07-30T04:31:28;15.60;;;4.67;;
25497;SDS011;13406;53.380;7.226;2023-07-30T04:33:53;12.07;;;4.30;;
25497;SDS011;13406;53.380;7.226;2023-07-30T04:36:18;10.93;;;4.10;;
25497;SDS011;13406;53.380;7.226;2023-07-30T04:38:44;9.87;;;3.57;;
25497;SDS011;13406;53.380;7.226;2023-07-30T04:41:09;12.57;;;4.13;;
25497;SDS011;13406;53.380;7.226;2023-07-30T04:43:35;12.10;;;4.30;;
25497;SDS011;13406;53.380;7.226;2023-07-30T04:46:00;9.83;;;4.10;;
25497;SDS011;13406;53.380;7.226;2023-07-30T04:48:26;16.17;;;4.03;;
25497;SDS011;13406;53.380;7.226;2023-07-30T04:50:51;17.07;;;4.80;;
25497;SDS011;13406;53.380;7.226;2023-07-30T04:53:17;16.30;;;3.83;;
25497;SDS011;13406;53.380;7.226;2023-07-30T04:55:43;9.73;;;4.00;;
25497;SDS011;13406;53.380;7.226;2023-07-30T04:58:08;14.27;;;4.33;;
25497;SDS011;13406;53.380;7.226;2023-07-30T05:00:34;10.97;;;4.07;;
25497;SDS011;13406;53.380;7.226;2023-07-30T05:02:59;15.13;;;4.00;;
25497;SDS011;13406;53.380;7.226;2023-07-30T05:05:25;13.03;;;4.70;;
25497;SDS011;13406;53.380;7.226;2023-07-30T05:07:50;11.73;;;3.70;;
25497;SDS011;13406;53.380;7.226;2023-07-30T05:10:16;10.93;;;3.37;;
25497;SDS011;13406;53.380;7.226;2023-07-30T05:12:41;12.33;;;4.83;;
25497;SDS011;13406;53.380;7.226;2023-07-30T05:15:07;13.60;;;3.40;;
25497;SDS011;13406;53.380;7.226;2023-07-30T05:17:32;12.50;;;4.20;;
25497;SDS011;13406;53.380;7.226;2023-07-30T05:19:58;11.23;;;3.90;;
25497;SDS011;13406;53.380;7.226;2023-07-30T05:22:23;11.07;;;3.97;;
25497;SDS011;13406;53.380;7.226;2023-07-30T05:24:50;13.40;;;3.80;;
25497;SDS011;13406;53.380;7.226;2023-07-30T05:27:15;14.83;;;4.07;;
25497;SDS011;13406;53.380;7.226;2023-07-30T05:29:41;14.20;;;3.70;;
25497;SDS011;13406;53.380;7.226;2023-07-30T05:32:07;9.27;;;2.90;;
25497;SDS011;13406;53.380;7.226;2023-07-30T05:34:33;11.63;;;3.80;;
25497;SDS011;13406;53.380;7.226;2023-07-30T05:36:58;11.97;;;4.30;;
25497;SDS011;13406;53.380;7.226;2023-07-30T05:39:24;14.73;;;4.47;;
25497;SDS011;13406;53.380;7.226;2023-07-30T05:41:49;13.93;;;4.40;;
25497;SDS011;13406;53.380;7.226;2023-07-30T05:44:14;9.80;;;3.87;;
25497;SDS011;13406;53.380;7.226;2023-07-30T05:46:40;8.47;;;3.87;;
25497;SDS011;13406;53.380;7.226;2023-07-30T05:49:05;14.73;;;5.10;;
25497;SDS011;13406;53.380;7.226;2023-07-30T05:51:31;12.37;;;3.47;;
25497;SDS011;13406;53.380;7.226;2023-07-30T05:53:56;14.00;;;4.57;;
25497;SDS011;13406;53.380;7.226;2023-07-30T05:56:22;14.23;;;3.57;;
25497;SDS011;13406;53.380;7.226;2023-07-30T05:58:47;11.00;;;3.90;;
25497;SDS011;13406;53.380;7.226;2023-07-30T06:01:12;10.03;;;3.67;;
25497;SDS011;13406;53.380;7.226;2023-07-30T06:03:38;15.30;;;3.90;;
25497;SDS011;13406;53.380;7.226;2023-07-30T06:06:03;11.23;;;3.40;;
25497;SDS011;13406;53.380;7.226;2023-07-30T06:08:29;12.47;;;3.53;;
25497;SDS011;13406;53.380;7.226;2023-07-30T06:11:00;13.43;;;4.40;;
25497;SDS011;13406;53.380;7.226;2023-07-30T06:13:28;10.97;;;3.77;;
25497;SDS011;13406;53.380;7.226;2023-07-30T06:15:53;16.70;;;3.80;;
25497;SDS011;13406;53.380;7.226;2023-07-30T06:18:19;17.10;;;3.63;;
25497;SDS011;13406;53.380;7.226;2023-07-30T06:20:44;12.03;;;3.30;;
25497;SDS011;13406;53.380;7.226;2023-07-30T06:23:10;13.50;;;3.07;;
25497;SDS011;13406;53.380;7.226;2023-07-30T06:25:35;13.10;;;3.53;;
25497;SDS011;13406;53.380;7.226;2023-07-30T06:28:01;12.60;;;3.90;;
25497;SDS011;13406;53.380;7.226;2023-07-30T06:30:26;7.20;;;2.13;;
25497;SDS011;13406;53.380;7.226;2023-07-30T06:32:51;15.30;;;3.97;;
25497;SDS011;13406;53.380;7.226;2023-07-30T06:35:17;7.43;;;2.70;;
25497;SDS011;13406;53.380;7.226;2023-07-30T06:37:42;10.33;;;2.53;;
25497;SDS011;13406;53.380;7.226;2023-07-30T06:40:08;14.93;;;2.80;;
25497;SDS011;13406;53.380;7.226;2023-07-30T06:42:33;9.90;;;2.83;;
25497;SDS011;13406;53.380;7.226;2023-07-30T06:44:59;8.73;;;2.40;;
25497;SDS011;13406;53.380;7.226;2023-07-30T06:47:24;8.40;;;2.27;;
25497;SDS011;13406;53.380;7.226;2023-07-30T06:49:50;8.20;;;2.90;;
25497;SDS011;13406;53.380;7.226;2023-07-30T06:52:15;8.63;;;2.47;;
25497;SDS011;13406;53.380;7.226;2023-07-30T06:54:41;9.90;;;2.60;;
25497;SDS011;13406;53.380;7.226;2023-07-30T06:57:06;7.63;;;2.50;;
25497;SDS011;13406;53.380;7.226;2023-07-30T06:59:32;10.87;;;2.70;;
25497;SDS011;13406;53.380;7.226;2023-07-30T07:01:58;11.40;;;2.43;;
25497;SDS011;13406;53.380;7.226;2023-07-30T07:04:24;7.70;;;2.50;;
25497;SDS011;13406;53.380;7.226;2023-07-30T07:06:49;10.37;;;2.90;;
25497;SDS011;13406;53.380;7.226;2023-07-30T07:09:15;12.70;;;3.27;;
25497;SDS011;13406;53.380;7.226;2023-07-30T07:11:40;14.37;;;4.10;;
25497;SDS011;13406;53.380;7.226;2023-07-30T07:14:06;7.67;;;2.90;;
25497;SDS011;13406;53.380;7.226;2023-07-30T07:16:31;11.43;;;3.10;;
25497;SDS011;13406;53.380;7.226;2023-07-30T07:18:57;10.63;;;2.83;;
25497;SDS011;13406;53.380;7.226;2023-07-30T07:21:22;9.97;;;2.53;;
25497;SDS011;13406;53.380;7.226;2023-07-30T07:23:48;8.10;;;2.30;;
25497;SDS011;13406;53.380;7.226;2023-07-30T07:26:13;11.23;;;2.47;;
25497;SDS011;13406;53.380;7.226;2023-07-30T07:28:38;18.30;;;3.70;;
25497;SDS011;13406;53.380;7.226;2023-07-30T07:31:04;11.03;;;3.43;;
25497;SDS011;13406;53.380;7.226;2023-07-30T07:33:29;11.80;;;3.23;;
25497;SDS011;13406;53.380;7.226;2023-07-30T07:36:05;9.87;;;3.07;;
25497;SDS011;13406;53.380;7.226;2023-07-30T07:38:33;10.30;;;2.90;;
25497;SDS011;13406;53.380;7.226;2023-07-30T07:40:59;10.07;;;3.20;;
25497;SDS011;13406;53.380;7.226;2023-07-30T07:43:26;11.87;;;3.10;;
25497;SDS011;13406;53.380;7.226;2023-07-30T07:45:52;11.60;;;2.93;;
25497;SDS011;13406;53.380;7.226;2023-07-30T07:48:17;7.70;;;2.23;;
25497;SDS011;13406;53.380;7.226;2023-07-30T07:50:43;10.30;;;2.97;;
25497;SDS011;13406;53.380;7.226;2023-07-30T07:53:08;9.97;;;2.83;;
25497;SDS011;13406;53.380;7.226;2023-07-30T07:55:34;6.60;;;2.10;;
25497;SDS011;13406;53.380;7.226;2023-07-30T07:58:02;10.63;;;3.00;;
25497;SDS011;13406;53.380;7.226;2023-07-30T08:00:28;11.47;;;2.63;;
25497;SDS011;13406;53.380;7.226;2023-07-30T08:02:53;7.23;;;1.90;;
25497;SDS011;13406;53.380;7.226;2023-07-30T08:05:19;10.50;;;2.97;;
25497;SDS011;13406;53.380;7.226;2023-07-30T08:07:49;10.83;;;2.47;;
25497;SDS011;13406;53.380;7.226;2023-07-30T08:10:15;7.60;;;2.50;;
25497;SDS011;13406;53.380;7.226;2023-07-30T08:12:41;12.33;;;2.90;;
25497;SDS011;13406;53.380;7.226;2023-07-30T08:15:07;11.20;;;2.80;;
25497;SDS011;13406;53.380;7.226;2023-07-30T08:17:32;11.80;;;3.20;;
25497;SDS011;13406;53.380;7.226;2023-07-30T08:19:58;8.80;;;1.97;;
25497;SDS011;13406;53.380;7.226;2023-07-30T08:22:23;8.07;;;2.60;;
25497;SDS011;13406;53.380;7.226;2023-07-30T08:24:49;12.97;;;2.77;;
25497;SDS011;13406;53.380;7.226;2023-07-30T08:27:14;7.90;;;1.97;;
25497;SDS011;13406;53.380;7.226;2023-07-30T08:29:40;10.73;;;2.23;;
25497;SDS011;13406;53.380;7.226;2023-07-30T08:32:08;6.27;;;1.97;;
25497;SDS011;13406;53.380;7.226;2023-07-30T08:34:33;9.10;;;2.83;;
25497;SDS011;13406;53.380;7.226;2023-07-30T08:36:59;10.53;;;2.53;;
25497;SDS011;13406;53.380;7.226;2023-07-30T08:39:24;5.97;;;2.20;;
25497;SDS011;13406;53.380;7.226;2023-07-30T08:41:50;8.20;;;2.23;;
25497;SDS011;13406;53.380;7.226;2023-07-30T08:44:15;15.03;;;3.07;;
25497;SDS011;13406;53.380;7.226;2023-07-30T08:46:41;10.00;;;2.97;;
25497;SDS011;13406;53.380;7.226;2023-07-30T08:49:07;6.10;;;2.27;;
25497;SDS011;13406;53.380;7.226;2023-07-30T08:51:32;8.43;;;2.50;;
25497;SDS011;13406;53.380;7.226;2023-07-30T08:54:01;7.13;;;2.10;;
25497;SDS011;13406;53.380;7.226;2023-07-30T08:56:27;7.53;;;2.10;;
25497;SDS011;13406;53.380;7.226;2023-07-30T08:58:53;12.67;;;2.50;;
25497;SDS011;13406;53.380;7.226;2023-07-30T09:01:22;7.40;;;2.37;;
25497;SDS011;13406;53.380;7.226;2023-07-30T09:03:52;9.13;;;2.37;;
25497;SDS011;13406;53.380;7.226;2023-07-30T09:06:18;8.23;;;2.47;;
25497;SDS011;13406;53.380;7.226;2023-07-30T09:08:44;12.00;;;3.30;;
25497;SDS011;13406;53.380;7.226;2023-07-30T09:11:09;5.70;;;1.87;;
25497;SDS011;13406;53.380;7.226;2023-07-30T09:13:39;5.07;;;1.90;;
25497;SDS011;13406;53.380;7.226;2023-07-30T09:16:13;6.33;;;1.67;;
25497;SDS011;13406;53.380;7.226;2023-07-30T09:18:40;4.23;;;1.23;;
25497;SDS011;13406;53.380;7.226;2023-07-30T09:21:14;6.80;;;1.77;;
25497;SDS011;13406;53.380;7.226;2023-07-30T09:23:43;9.63;;;1.87;;
25497;SDS011;13406;53.380;7.226;2023-07-30T09:26:12;7.07;;;2.10;;
25497;SDS011;13406;53.380;7.226;2023-07-30T09:28:39;4.63;;;1.63;;
25497;SDS011;13406;53.380;7.226;2023-07-30T09:31:06;8.03;;;1.87;;
25497;SDS011;13406;53.380;7.226;2023-07-30T09:33:33;8.00;;;2.03;;
25497;SDS011;13406;53.380;7.226;2023-07-30T09:36:03;7.30;;;1.50;;
25497;SDS011;13406;53.380;7.226;2023-07-30T09:38:29;6.80;;;2.00;;
25497;SDS011;13406;53.380;7.226;2023-07-30T09:41:01;6.10;;;1.80;;
25497;SDS011;13406;53.380;7.226;2023-07-30T09:43:29;5.40;;;1.50;;
25497;SDS011;13406;53.380;7.226;2023-07-30T09:46:01;4.33;;;1.53;;
25497;SDS011;13406;53.380;7.226;2023-07-30T09:48:31;3.57;;;1.17;;
25497;SDS011;13406;53.380;7.226;2023-07-30T09:51:01;5.87;;;1.07;;
25497;SDS011;13406;53.380;7.226;2023-07-30T09:53:31;6.00;;;1.70;;
25497;SDS011;13406;53.380;7.226;2023-07-30T09:56:04;3.60;;;1.20;;
25497;SDS011;13406;53.380;7.226;2023-07-30T09:58:33;6.60;;;1.57;;
25497;SDS011;13406;53.380;7.226;2023-07-30T10:01:01;5.00;;;1.57;;
25497;SDS011;13406;53.380;7.226;2023-07-30T10:03:29;7.07;;;1.30;;
25497;SDS011;13406;53.380;7.226;2023-07-30T10:06:00;5.07;;;1.63;;
25497;SDS011;13406;53.380;7.226;2023-07-30T10:08:28;5.73;;;1.40;;
25497;SDS011;13406;53.380;7.226;2023-07-30T10:10:57;6.30;;;2.13;;
25497;SDS011;13406;53.380;7.226;2023-07-30T10:13:25;8.17;;;1.77;;
25497;SDS011;13406;53.380;7.226;2023-07-30T10:15:52;6.43;;;1.97;;
25497;SDS011;13406;53.380;7.226;2023-07-30T10:18:17;5.23;;;1.50;;
25497;SDS011;13406;53.380;7.226;2023-07-30T10:20:53;5.30;;;1.97;;
25497;SDS011;13406;53.380;7.226;2023-07-30T10:23:20;8.80;;;1.77;;
25497;SDS011;13406;53.380;7.226;2023-07-30T10:25:46;8.43;;;2.03;;
25497;SDS011;13406;53.380;7.226;2023-07-30T10:28:26;7.23;;;2.43;;
25497;SDS011;13406;53.380;7.226;2023-07-30T10:31:00;7.53;;;2.17;;
25497;SDS011;13406;53.380;7.226;2023-07-30T10:33:43;7.30;;;1.77;;
25497;SDS011;13406;53.380;7.226;2023-07-30T10:36:12;8.60;;;2.40;;
25497;SDS011;13406;53.380;7.226;2023-07-30T10:38:38;9.40;;;2.40;;
25497;SDS011;13406;53.380;7.226;2023-07-30T10:41:10;6.40;;;2.17;;
25497;SDS011;13406;53.380;7.226;2023-07-30T10:43:41;10.53;;;2.33;;
25497;SDS011;13406;53.380;7.226;2023-07-30T10:46:09;5.47;;;1.67;;
25497;SDS011;13406;53.380;7.226;2023-07-30T10:48:37;6.47;;;2.27;;
25497;SDS011;13406;53.380;7.226;2023-07-30T10:51:08;8.23;;;2.47;;
25497;SDS011;13406;53.380;7.226;2023-07-30T10:53:34;8.63;;;2.53;;
25497;SDS011;13406;53.380;7.226;2023-07-30T10:56:04;3.50;;;1.70;;
25497;SDS011;13406;53.380;7.226;2023-07-30T10:58:32;5.17;;;1.53;;
25497;SDS011;13406;53.380;7.226;2023-07-30T11:01:06;9.07;;;2.73;;
25497;SDS011;13406;53.380;7.226;2023-07-30T11:03:33;6.90;;;1.80;;
25497;SDS011;13406;53.380;7.226;2023-07-30T11:05:59;7.67;;;1.83;;
25497;SDS011;13406;53.380;7.226;2023-07-30T11:08:33;5.53;;;1.90;;
25497;SDS011;13406;53.380;7.226;2023-07-30T11:11:05;6.87;;;1.77;;
25497;SDS011;13406;53.380;7.226;2023-07-30T11:13:35;6.20;;;2.23;;
25497;SDS011;13406;53.380;7.226;2023-07-30T11:16:08;7.73;;;2.07;;
25497;SDS011;13406;53.380;7.226;2023-07-30T11:18:34;3.77;;;1.77;;
25497;SDS011;13406;53.380;7.226;2023-07-30T11:23:29;6.10;;;1.50;;
25497;SDS011;13406;53.380;7.226;2023-07-30T11:25:54;4.97;;;1.87;;
25497;SDS011;13406;53.380;7.226;2023-07-30T11:28:33;5.23;;;1.10;;
25497;SDS011;13406;53.380;7.226;2023-07-30T11:31:00;11.20;;;2.30;;
25497;SDS011;13406;53.380;7.226;2023-07-30T11:33:28;6.73;;;2.27;;
25497;SDS011;13406;53.380;7.226;2023-07-30T11:35:54;5.87;;;1.60;;
25497;SDS011;13406;53.380;7.226;2023-07-30T11:38:24;6.00;;;1.47;;
25497;SDS011;13406;53.380;7.226;2023-07-30T11:40:52;7.10;;;2.10;;
25497;SDS011;13406;53.380;7.226;2023-07-30T11:43:19;7.80;;;1.80;;
25497;SDS011;13406;53.380;7.226;2023-07-30T11:45:45;3.47;;;1.10;;
25497;SDS011;13406;53.380;7.226;2023-07-30T11:48:11;10.17;;;1.93;;
25497;SDS011;13406;53.380;7.226;2023-07-30T11:53:17;4.80;;;1.80;;
25497;SDS011;13406;53.380;7.226;2023-07-30T11:55:44;5.73;;;1.63;;
25497;SDS011;13406;53.380;7.226;2023-07-30T11:58:11;7.20;;;1.63;;
25497;SDS011;13406;53.380;7.226;2023-07-30T12:00:38;7.27;;;1.90;;
25497;SDS011;13406;53.380;7.226;2023-07-30T12:03:05;3.73;;;1.40;;
25497;SDS011;13406;53.380;7.226;2023-07-30T12:05:34;10.30;;;1.97;;
25497;SDS011;13406;53.380;7.226;2023-07-30T12:08:01;9.20;;;1.70;;
25497;SDS011;13406;53.380;7.226;2023-07-30T12:10:49;6.17;;;1.80;;
25497;SDS011;13406;53.380;7.226;2023-07-30T12:13:15;5.13;;;1.43;;
25497;SDS011;13406;53.380;7.226;2023-07-30T12:15:50;4.90;;;1.67;;
25497;SDS011;13406;53.380;7.226;2023-07-30T12:18:17;4.00;;;1.53;;
25497;SDS011;13406;53.380;7.226;2023-07-30T12:20:43;4.53;;;1.63;;
25497;SDS011;13406;53.380;7.226;2023-07-30T12:23:08;4.90;;;1.90;;
25497;SDS011;13406;53.380;7.226;2023-07-30T12:25:33;8.90;;;1.70;;
25497;SDS011;13406;53.380;7.226;2023-07-30T12:27:59;6.23;;;1.70;;
25497;SDS011;13406;53.380;7.226;2023-07-30T12:30:25;5.43;;;1.70;;
25497;SDS011;13406;53.380;7.226;2023-07-30T12:32:51;7.77;;;1.63;;
25497;SDS011;13406;53.380;7.226;2023-07-30T12:35:17;7.17;;;2.03;;
25497;SDS011;13406;53.380;7.226;2023-07-30T12:37:42;7.40;;;1.70;;
25497;SDS011;13406;53.380;7.226;2023-07-30T12:40:08;6.13;;;2.23;;
25497;SDS011;13406;53.380;7.226;2023-07-30T12:42:33;8.27;;;1.50;;
25497;SDS011;13406;53.380;7.226;2023-07-30T12:44:59;5.00;;;1.67;;
25497;SDS011;13406;53.380;7.226;2023-07-30T12:47:24;9.07;;;1.80;;
25497;SDS011;13406;53.380;7.226;2023-07-30T12:49:50;6.53;;;1.43;;
25497;SDS011;13406;53.380;7.226;2023-07-30T12:52:15;9.27;;;2.40;;
25497;SDS011;13406;53.380;7.226;2023-07-30T12:54:41;6.30;;;1.93;;
25497;SDS011;13406;53.380;7.226;2023-07-30T12:57:06;8.33;;;2.40;;
25497;SDS011;13406;53.380;7.226;2023-07-30T12:59:31;6.70;;;1.70;;
25497;SDS011;13406;53.380;7.226;2023-07-30T13:01:57;8.87;;;1.97;;
25497;SDS011;13406;53.380;7.226;2023-07-30T13:04:23;7.43;;;1.60;;
25497;SDS011;13406;53.380;7.226;2023-07-30T13:06:52;3.23;;;1.00;;
25497;SDS011;13406;53.380;7.226;2023-07-30T13:09:18;4.63;;;1.63;;
25497;SDS011;13406;53.380;7.226;2023-07-30T13:11:44;4.90;;;1.60;;
25497;SDS011;13406;53.380;7.226;2023-07-30T13:14:09;3.00;;;1.40;;
25497;SDS011;13406;53.380;7.226;2023-07-30T13:16:34;6.10;;;1.53;;
25497;SDS011;13406;53.380;7.226;2023-07-30T13:19:00;5.67;;;1.87;;
25497;SDS011;13406;53.380;7.226;2023-07-30T13:21:25;5.30;;;1.57;;
25497;SDS011;13406;53.380;7.226;2023-07-30T13:23:51;3.10;;;1.20;;
25497;SDS011;13406;53.380;7.226;2023-07-30T13:26:16;4.00;;;1.30;;
25497;SDS011;13406;53.380;7.226;2023-07-30T13:28:42;5.67;;;1.40;;
25497;SDS011;13406;53.380;7.226;2023-07-30T13:31:08;5.93;;;1.60;;
25497;SDS011;13406;53.380;7.226;2023-07-30T13:33:33;5.53;;;1.67;;
25497;SDS011;13406;53.380;7.226;2023-07-30T13:35:59;4.17;;;1.47;;
25497;SDS011;13406;53.380;7.226;2023-07-30T13:38:25;4.90;;;1.10;;
25497;SDS011;13406;53.380;7.226;2023-07-30T13:40:52;4.00;;;1.23;;
25497;SDS011;13406;53.380;7.226;2023-07-30T13:43:17;2.07;;;0.80;;
25497;SDS011;13406;53.380;7.226;2023-07-30T13:45:42;4.23;;;1.63;;
25497;SDS011;13406;53.380;7.226;2023-07-30T13:48:08;3.80;;;1.30;;
25497;SDS011;13406;53.380;7.226;2023-07-30T13:50:34;3.10;;;1.20;;
25497;SDS011;13406;53.380;7.226;2023-07-30T13:53:00;5.60;;;1.30;;
25497;SDS011;13406;53.380;7.226;2023-07-30T13:55:25;5.40;;;1.30;;
25497;SDS011;13406;53.380;7.226;2023-07-30T13:57:51;4.43;;;1.67;;
25497;SDS011;13406;53.380;7.226;2023-07-30T14:00:16;5.70;;;1.33;;
25497;SDS011;13406;53.380;7.226;2023-07-30T14:02:42;4.77;;;1.80;;
25497;SDS011;13406;53.380;7.226;2023-07-30T14:05:08;5.10;;;1.50;;
25497;SDS011;13406;53.380;7.226;2023-07-30T14:07:34;10.40;;;1.63;;
25497;SDS011;13406;53.380;7.226;2023-07-30T14:10:00;5.73;;;1.57;;
25497;SDS011;13406;53.380;7.226;2023-07-30T14:12:26;4.20;;;1.40;;
25497;SDS011;13406;53.380;7.226;2023-07-30T14:14:51;5.93;;;1.80;;
25497;SDS011;13406;53.380;7.226;2023-07-30T14:17:16;7.30;;;1.60;;
25497;SDS011;13406;53.380;7.226;2023-07-30T14:19:42;5.83;;;1.30;;
25497;SDS011;13406;53.380;7.226;2023-07-30T14:22:08;7.77;;;1.20;;
25497;SDS011;13406;53.380;7.226;2023-07-30T14:24:33;4.00;;;1.30;;
25497;SDS011;13406;53.380;7.226;2023-07-30T14:26:59;4.90;;;1.50;;
25497;SDS011;13406;53.380;7.226;2023-07-30T14:29:25;5.50;;;1.40;;
25497;SDS011;13406;53.380;7.226;2023-07-30T14:31:50;3.97;;;1.40;;
25497;SDS011;13406;53.380;7.226;2023-07-30T14:34:16;6.73;;;1.60;;
25497;SDS011;13406;53.380;7.226;2023-07-30T14:36:41;5.67;;;1.37;;
25497;SDS011;13406;53.380;7.226;2023-07-30T14:39:07;5.77;;;1.33;;
25497;SDS011;13406;53.380;7.226;2023-07-30T14:41:32;6.50;;;1.30;;
25497;SDS011;13406;53.380;7.226;2023-07-30T14:43:59;5.03;;;1.60;;
25497;SDS011;13406;53.380;7.226;2023-07-30T14:46:24;2.90;;;1.20;;